Time;durP1;ratioP1;P1;durP2;ratioP2;P2;SDS_P1;SDS_P2;PMS_P1;PMS_P2;Temp;Humidity;BMP_temperature;BMP_pressure;BME280_temperature;BME280_humidity;BME280_pressure;Samples;Min_cycle;Max_cycle;Signal;HPM_P1;HPM_P2
2023/06/26 00:01:31;;;;;;;3.05;2.75;;;;;;;21.67;65.98;101154.31;5051130;28;20048;-80
2023/06/26 00:04:00;;;;;;;3.78;3.00;;;;;;;21.62;67.32;101159.84;5051708;28;20024;-80
2023/06/26 00:06:26;;;;;;;5.38;3.95;;;;;;;21.57;70.48;101151.31;5051666;28;20025;-80
2023/06/26 00:08:55;;;;;;;4.93;3.80;;;;;;;21.56;68.48;101142.50;5052041;28;20024;-80
2023/06/26 00:11:21;;;;;;;4.47;3.45;;;;;;;21.60;68.75;101140.59;5052321;28;20280;-80
2023/06/26 00:13:47;;;;;;;3.42;2.95;;;;;;;21.60;67.47;101138.81;5052354;28;20040;-81
2023/06/26 00:16:13;;;;;;;3.03;2.67;;;;;;;21.64;67.11;101136.00;5051209;28;20084;-81
2023/06/26 00:18:38;;;;;;;4.47;3.03;;;;;;;21.64;67.55;101134.19;5052143;28;20029;-81
2023/06/26 00:21:06;;;;;;;4.60;3.60;;;;;;;21.68;67.99;101140.16;5052263;28;20029;-81
2023/06/26 00:23:32;;;;;;;4.43;3.20;;;;;;;21.62;67.05;101127.31;5051607;28;20036;-81
2023/06/26 00:25:58;;;;;;;4.38;3.33;;;;;;;21.71;66.67;101135.56;5052041;28;20022;-81
2023/06/26 00:28:23;;;;;;;3.00;2.70;;;;;;;21.73;66.90;101138.09;5066945;28;20037;-81
2023/06/26 00:30:48;;;;;;;2.87;2.60;;;;;;;21.75;66.70;101136.22;5071502;28;20384;-81
2023/06/26 00:33:14;;;;;;;2.87;2.53;;;;;;;21.71;66.01;101126.78;5071692;28;20033;-81
2023/06/26 00:35:39;;;;;;;2.60;2.40;;;;;;;21.73;66.17;101138.94;5072611;28;20104;-80
2023/06/26 00:38:04;;;;;;;2.50;2.30;;;;;;;21.72;65.67;101134.63;5071628;28;20384;-80
2023/06/26 00:40:30;;;;;;;2.40;2.20;;;;;;;21.71;65.84;101130.28;5071730;28;20028;-80
2023/06/26 00:42:55;;;;;;;3.57;2.60;;;;;;;21.70;66.28;101128.56;5072006;28;20039;-81
2023/06/26 00:45:21;;;;;;;2.40;2.20;;;;;;;21.67;66.13;101133.19;5071599;28;20033;-81
2023/06/26 00:47:47;;;;;;;2.50;2.30;;;;;;;21.68;67.02;101132.22;5071603;28;20035;-81
2023/06/26 00:50:13;;;;;;;2.50;2.30;;;;;;;21.63;65.71;101135.13;5072002;28;20024;-81
2023/06/26 00:52:38;;;;;;;2.30;2.10;;;;;;;21.63;65.67;101145.69;5071456;28;20040;-81
2023/06/26 00:55:04;;;;;;;2.33;2.13;;;;;;;21.62;66.43;101144.00;5072178;28;20021;-81
2023/06/26 00:57:30;;;;;;;2.35;2.15;;;;;;;21.58;65.85;101147.72;5068463;28;20039;-81
2023/06/26 01:00:01;;;;;;;3.67;2.63;;;;;;;21.57;66.15;101144.22;5070961;28;20040;-81
2023/06/26 01:02:33;;;;;;;2.60;2.40;;;;;;;21.60;65.37;101149.38;5071578;28;20016;-81
2023/06/26 01:04:59;;;;;;;2.40;2.20;;;;;;;21.58;64.97;101142.44;5071196;28;20036;-80
2023/06/26 01:07:24;;;;;;;2.50;2.30;;;;;;;21.58;66.14;101142.44;5071563;28;20017;-81
2023/06/26 01:09:50;;;;;;;3.27;2.57;;;;;;;21.54;67.07;101146.19;5072155;28;20111;-81
2023/06/26 01:12:16;;;;;;;2.60;2.40;;;;;;;21.51;66.10;101147.22;5072215;28;20027;-81
2023/06/26 01:14:41;;;;;;;2.30;2.10;;;;;;;21.52;66.12;101156.84;5075400;28;20124;-81
2023/06/26 01:17:07;;;;;;;2.07;1.97;;;;;;;21.50;66.05;101165.81;5074869;28;20310;-81
2023/06/26 01:19:33;;;;;;;2.38;2.17;;;;;;;21.47;67.71;101169.44;5075148;28;20037;-81
2023/06/26 01:22:29;;;;;;;2.58;2.38;;;;;;;21.42;66.63;101163.59;5075293;28;20063;-81
2023/06/26 01:25:18;;;;;;;2.55;2.35;;;;;;;21.36;66.37;101169.19;5075720;28;20111;-82
2023/06/26 01:27:49;;;;;;;2.58;2.38;;;;;;;21.30;66.41;101165.13;5073880;28;20067;-81
2023/06/26 01:30:16;;;;;;;2.85;2.50;;;;;;;21.29;67.59;101168.69;5074972;28;20044;-82
2023/06/26 01:32:44;;;;;;;3.13;2.60;;;;;;;21.27;66.13;101170.59;5074725;28;20060;-81
2023/06/26 01:35:11;;;;;;;4.65;3.45;;;;;;;21.22;67.03;101180.53;5074124;28;20089;-81
2023/06/26 01:37:36;;;;;;;;;;;;;;;21.19;67.20;101175.41;5075455;28;20025;-81
2023/06/26 01:40:05;;;;;;;;;;;;;;;21.15;67.30;101172.09;5069791;28;20262;-81
2023/06/26 01:42:30;;;;;;;4.88;3.53;;;;;;;21.09;67.12;101168.00;5054161;28;19912;-81
2023/06/26 01:44:57;;;;;;;3.80;2.97;;;;;;;21.08;66.36;101176.84;5055481;28;20028;-81
2023/06/26 01:47:28;;;;;;;3.47;3.00;;;;;;;21.07;67.00;101179.59;5054017;28;20275;-81
2023/06/26 01:50:02;;;;;;;3.80;3.10;;;;;;;21.02;67.56;101189.53;5055045;28;20048;-81
2023/06/26 01:52:40;;;;;;;3.60;2.80;;;;;;;21.02;66.32;101205.34;5054954;28;20028;-81
2023/06/26 01:55:25;;;;;;;3.10;2.65;;;;;;;20.96;67.16;101199.50;5053888;28;20381;-81
2023/06/26 01:57:53;;;;;;;4.45;3.13;;;;;;;20.92;67.58;101197.09;5064786;28;20078;-81
2023/06/26 02:00:21;;;;;;;4.78;3.13;;;;;;;20.86;67.89;101195.63;5074594;28;20086;-81
2023/06/26 02:02:46;;;;;;;5.32;3.35;;;;;;;20.78;67.49;101195.16;5073897;28;20020;-81
2023/06/26 02:05:12;;;;;;;6.03;3.30;;;;;;;20.77;68.13;101199.59;5074496;28;20495;-81
2023/06/26 02:07:38;;;;;;;4.90;3.20;;;;;;;20.74;67.56;101202.41;5074480;28;20028;-80
2023/06/26 02:10:04;;;;;;;3.70;2.97;;;;;;;20.68;68.15;101202.69;5073717;28;20069;-80
2023/06/26 02:12:29;;;;;;;4.32;3.33;;;;;;;20.64;68.08;101199.38;5074036;28;20028;-82
2023/06/26 02:14:54;;;;;;;5.77;3.40;;;;;;;20.58;67.46;101196.19;5074475;28;20107;-81
2023/06/26 02:17:20;;;;;;;3.93;2.87;;;;;;;20.57;67.49;101205.03;5072753;28;20054;-81
2023/06/26 02:19:47;;;;;;;4.17;2.70;;;;;;;20.52;68.18;101192.94;5073938;28;20074;-81
2023/06/26 02:22:16;;;;;;;3.65;2.80;;;;;;;20.49;67.98;101193.09;5074485;28;20025;-80
2023/06/26 02:24:43;;;;;;;4.05;2.80;;;;;;;20.47;67.05;101191.47;5072674;28;20417;-81
2023/06/26 02:27:09;;;;;;;3.53;2.80;;;;;;;20.48;68.17;101198.44;5068919;28;20035;-80
2023/06/26 02:29:34;;;;;;;3.15;2.45;;;;;;;20.43;66.99;101198.69;5053722;28;20020;-81
2023/06/26 02:31:59;;;;;;;3.03;2.33;;;;;;;20.43;67.56;101205.75;5054016;28;20103;-81
2023/06/26 02:34:25;;;;;;;2.60;2.20;;;;;;;20.40;67.27;101198.00;5053514;28;20064;-81
2023/06/26 02:36:50;;;;;;;2.10;1.90;;;;;;;20.29;66.99;101188.88;5053660;28;20064;-81
2023/06/26 02:39:26;;;;;;;1.93;1.83;;;;;;;20.30;68.57;101195.84;5053105;28;20071;-81
2023/06/26 02:41:51;;;;;;;;;;;;;;;20.34;68.54;101213.19;5054550;28;20029;-81
2023/06/26 02:44:17;;;;;;;3.40;2.20;;;;;;;20.28;68.66;101208.25;5053091;28;19954;-81
2023/06/26 02:46:42;;;;;;;3.10;2.10;;;;;;;20.16;68.69;101207.06;5057324;28;20290;-81
2023/06/26 02:49:08;;;;;;;2.17;1.90;;;;;;;20.18;69.04;101218.38;5073474;28;20051;-81
2023/06/26 02:51:33;;;;;;;2.90;2.23;;;;;;;20.17;69.24;101226.38;5072820;28;20025;-81
2023/06/26 02:53:59;;;;;;;2.15;1.92;;;;;;;20.10;69.07;101220.53;5073317;28;20085;-82
2023/06/26 02:56:28;;;;;;;2.20;2.00;;;;;;;20.07;69.35;101223.31;5071872;28;20639;-81
2023/06/26 02:58:54;;;;;;;2.70;2.20;;;;;;;20.04;68.84;101237.50;5071290;28;20135;-81
2023/06/26 03:01:20;;;;;;;3.23;2.30;;;;;;;20.01;68.77;101242.91;5072754;28;20475;-81
2023/06/26 03:03:51;;;;;;;3.13;2.40;;;;;;;19.96;69.71;101233.53;5073796;28;20285;-81
2023/06/26 03:06:17;;;;;;;3.28;2.30;;;;;;;19.90;69.75;101243.47;5071805;28;20029;-81
2023/06/26 03:08:42;;;;;;;2.37;2.17;;;;;;;19.88;69.65;101253.22;5073056;28;20020;-81
2023/06/26 03:11:08;;;;;;;2.60;2.20;;;;;;;19.80;69.46;101242.16;5072984;28;20017;-81
2023/06/26 03:13:35;;;;;;;2.58;2.28;;;;;;;19.81;69.94;101248.28;5072503;28;20400;-81
2023/06/26 03:16:00;;;;;;;4.00;2.42;;;;;;;19.76;69.69;101256.41;5072590;28;20055;-82
2023/06/26 03:18:26;;;;;;;2.90;2.17;;;;;;;19.74;70.54;101252.97;5072658;28;20033;-82
2023/06/26 03:20:53;;;;;;;3.97;2.63;;;;;;;19.71;70.51;101253.09;5072557;28;20028;-82
2023/06/26 03:23:19;;;;;;;2.53;2.28;;;;;;;19.66;70.34;101250.69;5072642;28;20117;-81
2023/06/26 03:25:44;;;;;;;2.30;2.10;;;;;;;19.62;69.52;101248.28;5072128;28;20016;-82
2023/06/26 03:28:10;;;;;;;3.30;2.20;;;;;;;19.62;70.91;101243.03;5059146;28;20028;-81
2023/06/26 03:30:35;;;;;;;3.40;2.53;;;;;;;19.58;71.17;101247.56;5053253;28;20021;-82
2023/06/26 03:33:00;;;;;;;4.00;2.40;;;;;;;19.52;71.09;101240.81;5052810;28;20071;-82
2023/06/26 03:35:26;;;;;;;3.87;2.40;;;;;;;19.47;71.08;101248.09;5071469;28;20032;-82
2023/06/26 03:37:51;;;;;;;2.30;2.10;;;;;;;19.44;72.35;101238.53;5072798;28;20111;-82
2023/06/26 03:40:16;;;;;;;3.57;2.30;;;;;;;19.44;70.75;101253.50;5072363;28;20036;-82
2023/06/26 03:42:42;;;;;;;4.37;2.50;;;;;;;19.41;73.17;101251.00;5072787;28;20443;-83
2023/06/26 03:45:07;;;;;;;2.38;2.13;;;;;;;19.38;71.85;101246.72;5072294;28;20427;-82
2023/06/26 03:47:33;;;;;;;3.53;2.40;;;;;;;19.39;72.00;101255.47;5072754;28;20129;-81
2023/06/26 03:49:58;;;;;;;2.43;2.23;;;;;;;19.36;73.54;101237.22;5072804;28;20050;-80
2023/06/26 03:52:23;;;;;;;2.40;2.10;;;;;;;19.37;72.42;101249.41;5067642;28;20386;-81
2023/06/26 03:54:49;;;;;;;2.53;2.20;;;;;;;19.33;73.14;101253.13;5071321;28;20575;-82
2023/06/26 03:57:14;;;;;;;3.87;2.50;;;;;;;19.27;76.12;101249.00;5065643;28;20072;-82
2023/06/26 03:59:39;;;;;;;3.00;2.10;;;;;;;19.29;74.21;101258.53;5052466;28;20036;-82
2023/06/26 04:02:05;;;;;;;2.33;2.10;;;;;;;19.27;73.39;101268.25;5052194;28;20021;-80
2023/06/26 04:04:30;;;;;;;4.60;2.60;;;;;;;19.27;75.18;101268.25;5053240;28;20384;-79
2023/06/26 04:06:57;;;;;;;3.40;2.27;;;;;;;19.27;76.94;101273.53;5053237;28;20036;-82
2023/06/26 04:09:22;;;;;;;3.40;2.60;;;;;;;19.21;75.25;101273.81;5051664;28;20025;-80
2023/06/26 04:11:47;;;;;;;3.90;2.50;;;;;;;19.22;76.55;101280.78;5052222;28;20055;-82
2023/06/26 04:14:12;;;;;;;3.33;2.50;;;;;;;19.21;74.43;101291.34;5052261;28;20033;-83
2023/06/26 04:16:38;;;;;;;3.70;2.50;;;;;;;19.27;77.60;101297.22;5051137;28;20087;-83
2023/06/26 04:19:04;;;;;;;5.10;2.80;;;;;;;19.25;78.63;101299.03;5052457;28;20029;-86
2023/06/26 04:21:30;;;;;;;;;;;;;;;19.29;76.23;101297.16;5052843;28;20430;-81
2023/06/26 04:23:55;;;;;;;6.03;2.83;;;;;;;19.30;76.26;101290.97;5051593;28;19927;-81
2023/06/26 04:26:21;;;;;;;4.33;2.80;;;;;;;19.34;77.52;101304.84;5052363;28;20032;-81
2023/06/26 04:28:46;;;;;;;3.47;2.50;;;;;;;19.33;76.27;101303.13;5053352;28;20105;-83
2023/06/26 04:31:12;;;;;;;3.87;2.57;;;;;;;19.37;78.19;101299.41;5051535;28;20158;-83
2023/06/26 04:33:37;;;;;;;4.37;2.60;;;;;;;19.43;77.83;101304.41;5052412;28;20070;-82
2023/06/26 04:36:03;;;;;;;4.17;2.67;;;;;;;19.50;76.96;101299.75;5051461;28;20025;-82
2023/06/26 04:38:30;;;;;;;4.50;2.70;;;;;;;19.56;78.92;101304.72;5070899;28;20032;-82
2023/06/26 04:40:56;;;;;;;4.38;2.83;;;;;;;19.57;77.84;101312.56;5072146;28;20028;-82
2023/06/26 04:43:21;;;;;;;4.10;2.60;;;;;;;19.58;77.39;101311.63;5071225;28;20115;-82
2023/06/26 04:45:46;;;;;;;2.73;2.30;;;;;;;19.65;77.92;101321.88;5072048;28;20074;-82
2023/06/26 04:48:12;;;;;;;4.43;2.70;;;;;;;19.68;79.07;101313.84;5074328;28;20481;-82
2023/06/26 04:50:37;;;;;;;5.00;2.80;;;;;;;19.68;79.10;101312.03;5075503;28;20020;-82
2023/06/26 04:53:02;;;;;;;3.77;2.60;;;;;;;19.68;78.97;101311.19;5075862;28;20427;-82
2023/06/26 04:55:28;;;;;;;5.50;2.80;;;;;;;19.77;79.82;101323.94;5075003;28;20055;-82
2023/06/26 04:57:54;;;;;;;3.20;2.40;;;;;;;19.81;78.44;101335.19;5071557;28;20073;-82
2023/06/26 05:00:19;;;;;;;2.10;2.00;;;;;;;19.83;78.34;101328.06;5073520;28;20041;-82
2023/06/26 05:02:45;;;;;;;2.43;2.20;;;;;;;19.90;77.66;101324.25;5075993;28;20020;-83
2023/06/26 05:05:11;;;;;;;2.40;2.08;;;;;;;19.94;76.79;101338.13;5074830;28;20036;-84
2023/06/26 05:07:37;;;;;;;2.30;1.90;;;;;;;20.01;79.70;101332.50;5076092;28;20095;-83
2023/06/26 05:10:08;;;;;;;;;;;;;;;19.98;80.06;101335.28;5075740;28;20016;-83
2023/06/26 05:12:33;;;;;;;6.68;3.30;;;;;;;19.93;80.03;101341.69;5075090;28;19916;-83
2023/06/26 05:14:59;;;;;;;4.67;2.93;;;;;;;19.95;79.19;101350.34;5075375;28;20484;-81
2023/06/26 05:17:24;;;;;;;5.57;3.07;;;;;;;20.00;76.88;101348.38;5075487;28;20648;-82
2023/06/26 05:19:49;;;;;;;3.97;2.63;;;;;;;20.05;78.18;101356.91;5087368;28;20494;-83
2023/06/26 05:22:16;;;;;;;4.03;2.67;;;;;;;20.08;79.06;101356.75;5095752;28;20491;-82
2023/06/26 05:24:46;;;;;;;4.68;2.50;;;;;;;20.15;77.81;101358.19;5095407;28;20024;-83
2023/06/26 05:27:19;;;;;;;4.25;2.78;;;;;;;20.10;78.51;101347.00;5085441;28;20045;-83
2023/06/26 05:29:44;;;;;;;5.78;2.63;;;;;;;20.17;78.90;101364.22;5055855;28;20044;-83
2023/06/26 05:32:11;;;;;;;4.83;2.50;;;;;;;20.19;79.74;101365.03;5053936;28;20469;-81
2023/06/26 05:34:38;;;;;;;4.72;2.78;;;;;;;20.16;77.45;101367.78;5055367;28;20389;-81
2023/06/26 05:37:04;;;;;;;7.55;3.33;;;;;;;20.17;78.34;101368.66;5056333;28;20382;-80
2023/06/26 05:39:30;;;;;;;4.90;2.63;;;;;;;20.18;77.75;101373.00;5054036;28;20465;-82
2023/06/26 05:41:56;;;;;;;5.37;2.70;;;;;;;20.27;78.66;101377.84;5054616;28;20036;-83
2023/06/26 05:44:21;;;;;;;8.52;3.63;;;;;;;20.33;78.52;101366.16;5054707;28;20021;-83
2023/06/26 05:46:47;;;;;;;6.57;3.30;;;;;;;20.31;77.46;101373.28;5055085;28;20027;-87
2023/06/26 05:49:12;;;;;;;3.97;2.50;;;;;;;20.31;77.56;101379.41;5055128;28;20041;-85
2023/06/26 05:51:37;;;;;;;3.00;2.20;;;;;;;20.35;76.90;101385.38;5054638;28;20167;-85
2023/06/26 05:54:03;;;;;;;5.57;2.70;;;;;;;20.37;77.45;101394.06;5054452;28;20119;-85
2023/06/26 05:56:29;;;;;;;3.43;2.40;;;;;;;20.36;77.17;101392.38;5054069;28;20026;-85
2023/06/26 05:58:55;;;;;;;3.87;2.23;;;;;;;20.37;77.05;101394.91;5054295;28;20087;-86
2023/06/26 06:01:21;;;;;;;2.80;2.00;;;;;;;20.39;76.65;101400.09;5053465;28;20531;-86
2023/06/26 06:03:49;;;;;;;3.17;2.30;;;;;;;20.93;76.93;101412.50;5054534;28;20056;-86
2023/06/26 06:06:15;;;;;;;4.65;2.47;;;;;;;22.20;71.16;101400.59;5054141;28;20032;-85
2023/06/26 06:08:41;;;;;;;;;;;;;;;23.15;68.93;101409.31;5053988;28;20032;-86
2023/06/26 06:13:54;;;;;;;4.65;2.40;;;;;;;24.86;65.49;101411.97;5054668;28;19912;-87
2023/06/26 06:16:37;;;;;;;2.77;1.97;;;;;;;25.60;63.24;101420.22;5053127;28;20584;-86
2023/06/26 06:19:06;;;;;;;4.03;2.25;;;;;;;26.40;58.49;101415.50;5055462;28;20044;-87
2023/06/26 06:21:50;;;;;;;2.33;1.75;;;;;;;26.81;58.79;101414.22;5054258;28;20377;-87
2023/06/26 06:24:15;;;;;;;2.17;1.63;;;;;;;26.90;57.55;101424.22;5053997;28;20021;-88
2023/06/26 06:26:41;;;;;;;2.40;1.80;;;;;;;26.47;56.04;101416.72;5059853;28;20081;-87
2023/06/26 06:29:24;;;;;;;3.87;1.97;;;;;;;26.08;57.45;101416.00;5073181;28;20119;-87
2023/06/26 06:32:13;;;;;;;2.95;1.92;;;;;;;25.95;53.89;101422.22;5074170;28;20032;-87
2023/06/26 06:34:38;;;;;;;3.83;1.70;;;;;;;25.93;55.61;101424.13;5032010;28;20068;-89
2023/06/26 06:37:26;;;;;;;5.53;2.30;;;;;;;25.80;57.58;101426.81;5030723;28;20029;-86
2023/06/26 06:39:51;;;;;;;4.40;2.10;;;;;;;25.65;55.48;101431.41;5012023;28;20056;-86
2023/06/26 06:42:41;;;;;;;2.67;1.90;;;;;;;25.64;56.80;101444.78;5012485;28;20030;-88
2023/06/26 06:45:07;;;;;;;3.72;1.90;;;;;;;25.56;55.52;101432.03;5012249;28;20030;-89
2023/06/26 06:47:33;;;;;;;4.80;2.00;;;;;;;25.54;54.55;101445.44;5012508;28;20096;-85
2023/06/26 06:50:07;;;;;;;3.17;2.15;;;;;;;25.42;57.14;101463.09;5047091;28;20045;-83
2023/06/26 06:52:48;;;;;;;2.83;1.92;;;;;;;25.40;56.35;101457.03;5046543;28;20427;-83
2023/06/26 06:55:13;;;;;;;4.05;2.00;;;;;;;25.43;54.47;101454.16;5053573;28;20025;-84
2023/06/26 06:57:39;;;;;;;3.50;2.23;;;;;;;25.43;55.62;101463.94;5055304;28;20450;-84
2023/06/26 07:00:20;;;;;;;4.55;2.42;;;;;;;25.20;53.17;101452.19;5053646;28;20032;-84
2023/06/26 07:02:46;;;;;;;2.72;2.10;;;;;;;24.99;55.25;101465.97;5053353;28;20021;-83
2023/06/26 07:05:12;;;;;;;2.00;1.80;;;;;;;24.99;56.96;101473.94;5052611;28;20017;-84
2023/06/26 07:07:38;;;;;;;3.17;2.20;;;;;;;25.20;56.15;101484.06;5053764;28;20025;-83
2023/06/26 07:10:19;;;;;;;;;;;;;;;25.08;55.83;101493.69;5053472;28;20021;-83
2023/06/26 07:12:44;;;;;;;2.75;1.88;;;;;;;24.85;56.00;101485.44;5052395;28;19920;-83
2023/06/26 07:15:10;;;;;;;1.90;1.70;;;;;;;24.61;56.41;101491.38;5053438;28;20029;-84
2023/06/26 07:17:37;;;;;;;2.53;1.85;;;;;;;24.36;57.17;101476.19;5053055;28;20405;-84
2023/06/26 07:20:18;;;;;;;3.55;2.10;;;;;;;24.26;58.36;101485.69;5051540;28;20021;-84
2023/06/26 07:22:44;;;;;;;2.22;1.90;;;;;;;24.23;58.84;101486.72;5068420;28;20472;-84
2023/06/26 07:25:10;;;;;;;2.55;1.98;;;;;;;24.35;57.58;101495.69;5071706;28;20021;-84
2023/06/26 07:27:50;;;;;;;2.85;1.95;;;;;;;24.20;57.89;101487.78;5072360;28;20031;-84
2023/06/26 07:30:16;;;;;;;2.83;2.33;;;;;;;24.14;59.06;101501.41;5072604;28;20044;-84
2023/06/26 07:32:42;;;;;;;2.93;2.20;;;;;;;24.08;59.49;101517.72;5072532;28;20028;-84
2023/06/26 07:35:07;;;;;;;;;;;;;;;23.87;58.62;101512.72;5073287;28;20028;-84
2023/06/26 07:37:51;;;;;;;3.30;2.40;;;;;;;23.66;59.49;101514.03;5073191;28;19966;-84
2023/06/26 07:40:17;;;;;;;3.88;2.30;;;;;;;23.54;60.57;101511.19;5071811;28;20020;-84
2023/06/26 07:42:42;;;;;;;2.30;2.10;;;;;;;23.47;60.97;101528.38;5073159;28;20117;-84
2023/06/26 07:45:11;;;;;;;2.40;2.20;;;;;;;23.28;60.88;101534.78;5072563;28;20495;-84
2023/06/26 07:47:49;;;;;;;2.13;1.80;;;;;;;23.27;61.15;101529.56;5065927;28;20035;-84
2023/06/26 07:50:21;;;;;;;3.58;2.00;;;;;;;23.37;61.08;101524.59;5073190;28;20078;-84
2023/06/26 07:52:46;;;;;;;2.50;1.90;;;;;;;23.41;61.19;101542.00;5070030;28;20060;-83
2023/06/26 07:55:12;;;;;;;2.20;2.00;;;;;;;23.33;60.47;101547.75;5071341;28;20066;-84
2023/06/26 07:57:39;;;;;;;2.90;2.20;;;;;;;23.37;60.49;101548.41;5072533;28;20035;-84
2023/06/26 08:00:08;;;;;;;2.28;2.08;;;;;;;23.62;61.17;101545.16;5072456;28;20074;-84
2023/06/26 08:02:33;;;;;;;4.45;3.00;;;;;;;23.82;57.69;101551.94;5072639;28;20040;-83
2023/06/26 08:05:02;;;;;;;6.63;3.10;;;;;;;23.82;57.15;101551.94;5072512;28;20020;-84
2023/06/26 08:07:34;;;;;;;4.57;2.83;;;;;;;23.87;58.33;101552.50;5071786;28;20052;-84
2023/06/26 08:12:27;;;;;;;4.47;2.50;;;;;;;23.68;58.03;101559.84;5049533;28;20057;-84
2023/06/26 08:14:53;;;;;;;2.20;2.00;;;;;;;23.74;58.76;101568.28;5051050;28;20037;-84
2023/06/26 08:17:18;;;;;;;2.37;1.70;;;;;;;23.73;58.73;101563.94;5051680;28;20025;-85
2023/06/26 08:19:58;;;;;;;1.80;1.70;;;;;;;23.66;57.78;101553.78;5052799;28;20037;-84
2023/06/26 08:22:23;;;;;;;1.70;1.60;;;;;;;23.43;57.97;101542.75;5052361;28;20025;-84
2023/06/26 08:24:49;;;;;;;1.50;1.40;;;;;;;23.36;59.27;101550.19;5056009;28;20079;-84
2023/06/26 08:27:33;;;;;;;2.07;1.20;;;;;;;23.38;58.88;101548.31;5055909;28;20380;-84
2023/06/26 08:29:58;;;;;;;1.27;1.20;;;;;;;23.43;59.93;101570.09;5055562;28;20032;-84
2023/06/26 08:32:25;;;;;;;2.37;1.57;;;;;;;23.48;57.65;101567.19;5056303;28;20465;-83
2023/06/26 08:34:50;;;;;;;1.60;1.38;;;;;;;23.58;58.06;101554.25;5055817;28;20052;-84
2023/06/26 08:37:16;;;;;;;1.53;1.30;;;;;;;23.84;55.77;101560.66;5055396;28;20481;-84
2023/06/26 08:39:41;;;;;;;1.10;1.07;;;;;;;23.92;56.85;101565.50;5056246;28;20295;-84
2023/06/26 08:42:06;;;;;;;1.10;1.00;;;;;;;23.87;55.50;101563.09;5055549;28;20104;-85
2023/06/26 08:44:32;;;;;;;1.37;1.20;;;;;;;23.63;53.42;101575.19;5056152;28;20082;-84
2023/06/26 08:47:00;;;;;;;2.23;1.30;;;;;;;23.57;51.19;101579.03;5055032;28;20415;-84
2023/06/26 08:49:34;;;;;;;2.05;1.23;;;;;;;23.55;53.10;101576.47;5054533;28;20033;-84
2023/06/26 08:52:06;;;;;;;2.35;1.20;;;;;;;23.81;53.15;101579.38;5055960;28;20039;-84
2023/06/26 08:54:36;;;;;;;1.73;1.20;;;;;;;24.10;52.33;101590.03;5056430;28;20448;-84
2023/06/26 08:57:04;;;;;;;1.58;0.93;;;;;;;24.35;54.21;101589.41;5054858;28;20033;-84
2023/06/26 08:59:30;;;;;;;1.20;1.10;;;;;;;24.60;51.58;101587.84;5055095;28;20021;-84
2023/06/26 09:01:56;;;;;;;;;;;;;;;24.75;50.91;101604.66;5056025;28;20075;-84
2023/06/26 09:04:21;;;;;;;1.77;1.10;;;;;;;24.68;47.60;101590.03;5054804;28;20280;-84
2023/06/26 09:06:46;;;;;;;3.23;1.30;;;;;;;24.62;51.67;101604.53;5055574;28;20021;-84
2023/06/26 09:09:12;;;;;;;2.23;1.20;;;;;;;24.68;51.30;101600.63;5055075;28;20029;-84
2023/06/26 09:11:37;;;;;;;1.83;1.15;;;;;;;24.71;51.76;101599.66;5054545;28;20045;-84
2023/06/26 09:14:06;;;;;;;1.63;1.27;;;;;;;24.88;51.47;101602.06;5055669;28;20033;-84
2023/06/26 09:16:38;;;;;;;1.85;1.00;;;;;;;24.86;49.08;101603.94;5054749;28;20502;-83
2023/06/26 09:19:09;;;;;;;1.40;1.00;;;;;;;24.79;49.80;101622.06;5054093;28;20415;-83
2023/06/26 09:21:37;;;;;;;1.67;1.10;;;;;;;24.88;46.38;101617.16;5055500;28;20033;-84
2023/06/26 09:24:03;;;;;;;1.05;0.95;;;;;;;24.82;48.57;101605.97;5055405;28;20036;-83
2023/06/26 09:26:28;;;;;;;1.40;1.30;;;;;;;24.97;48.65;101612.09;5054577;28;20029;-83
2023/06/26 09:28:53;;;;;;;2.43;1.30;;;;;;;24.97;47.70;101606.78;5055200;28;20029;-84
2023/06/26 09:31:20;;;;;;;1.93;1.37;;;;;;;24.93;47.14;101615.91;5055282;28;20044;-84
2023/06/26 09:33:47;;;;;;;1.67;1.40;;;;;;;24.78;48.02;101620.38;5055201;28;20021;-83
2023/06/26 09:36:23;;;;;;;1.38;1.02;;;;;;;24.90;48.67;101620.53;5054858;28;20044;-84
2023/06/26 09:38:49;;;;;;;1.00;0.93;;;;;;;25.04;49.01;101623.16;5054413;28;20039;-84
2023/06/26 09:41:17;;;;;;;2.05;1.33;;;;;;;25.18;46.78;101630.22;5054409;28;20100;-83
2023/06/26 09:43:46;;;;;;;1.48;1.08;;;;;;;25.29;48.13;101640.16;5055377;28;20029;-88
2023/06/26 09:46:25;;;;;;;2.05;1.20;;;;;;;25.37;47.29;101645.00;5053696;28;20028;-85
2023/06/26 09:49:05;;;;;;;1.27;1.10;;;;;;;25.49;48.09;101638.91;5055058;28;20017;-85
2023/06/26 09:51:34;;;;;;;1.60;1.20;;;;;;;25.74;47.92;101656.72;5055001;28;20053;-84
2023/06/26 09:54:00;;;;;;;1.13;1.02;;;;;;;25.79;47.10;101653.75;5053800;28;20084;-86
2023/06/26 09:56:27;;;;;;;;;;;;;;;25.80;46.83;101665.22;5055353;28;20393;-86
2023/06/26 09:58:57;;;;;;;0.63;0.63;;;;;;;25.78;46.65;101649.38;5054742;28;19963;-85
2023/06/26 10:01:26;;;;;;;0.82;0.77;;;;;;;25.63;45.31;101648.59;5053599;28;20441;-85
2023/06/26 10:03:51;;;;;;;0.70;0.70;;;;;;;25.52;47.46;101646.66;5052616;28;20495;-84
2023/06/26 10:06:27;;;;;;;1.30;1.20;;;;;;;25.39;45.84;101651.06;5054487;28;20020;-84
2023/06/26 10:08:54;;;;;;;1.10;1.00;;;;;;;25.44;47.44;101648.97;5054139;28;20029;-85
2023/06/26 10:11:42;;;;;;;0.85;0.80;;;;;;;25.48;47.46;101657.59;5054101;28;20044;-85
2023/06/26 10:14:09;;;;;;;1.95;1.33;;;;;;;25.38;44.16;101652.00;5053222;28;20041;-84
2023/06/26 10:16:43;;;;;;;0.80;0.80;;;;;;;25.49;45.57;101659.28;5039112;28;20041;-85
2023/06/26 10:19:31;;;;;;;1.17;1.00;;;;;;;25.75;45.25;101665.53;5054399;28;20076;-86
2023/06/26 10:21:58;;;;;;;0.90;0.77;;;;;;;25.95;44.15;101664.19;5059926;22;20081;-85
2023/06/26 10:24:26;;;;;;;1.23;0.80;;;;;;;26.20;44.31;101662.56;5014251;28;20038;-84
2023/06/26 10:27:16;;;;;;;1.42;0.88;;;;;;;26.43;44.15;101671.59;5014341;28;20032;-84
2023/06/26 10:29:48;;;;;;;1.13;0.80;;;;;;;26.39;41.51;101674.56;5013652;28;20084;-85
2023/06/26 10:32:15;;;;;;;1.15;0.90;;;;;;;26.39;43.85;101669.25;5014199;28;20030;-85
2023/06/26 10:34:40;;;;;;;1.00;0.85;;;;;;;26.45;42.47;101679.47;5014171;28;20109;-84
2023/06/26 10:37:06;;;;;;;1.02;0.93;;;;;;;26.42;44.44;101663.72;5013910;28;20060;-83
2023/06/26 10:39:54;;;;;;;0.70;0.70;;;;;;;26.25;40.91;101673.72;5014459;28;20500;-85
2023/06/26 10:42:34;;;;;;;1.58;0.80;;;;;;;25.93;42.20;101682.06;5013360;28;20783;-84
2023/06/26 10:45:13;;;;;;;1.05;0.95;;;;;;;25.82;43.00;101681.91;5013660;28;20117;-85
2023/06/26 10:47:40;;;;;;;1.90;1.08;;;;;;;25.92;41.85;101682.16;5013974;28;20038;-85
2023/06/26 10:50:21;;;;;;;0.90;0.90;;;;;;;25.73;42.96;101694.00;5012841;28;20478;-85
2023/06/26 10:53:09;;;;;;;0.98;0.98;;;;;;;25.42;43.11;101693.38;5014672;28;20022;-85
2023/06/26 10:55:35;;;;;;;1.20;1.10;;;;;;;25.34;42.74;101688.53;5014200;28;20034;-84
2023/06/26 10:58:05;;;;;;;1.20;1.00;;;;;;;25.51;43.30;101683.97;5013179;28;20033;-85
2023/06/26 11:00:31;;;;;;;1.60;0.98;;;;;;;25.77;42.98;101684.06;5012497;28;20029;-85
2023/06/26 11:03:00;;;;;;;1.20;1.10;;;;;;;26.01;41.81;101684.19;5013341;28;20034;-83
2023/06/26 11:05:32;;;;;;;2.53;1.00;;;;;;;26.05;40.99;101697.19;5013476;28;20045;-85
2023/06/26 11:08:08;;;;;;;1.42;1.05;;;;;;;25.92;40.29;101704.28;5013932;28;20073;-84
2023/06/26 11:10:54;;;;;;;0.93;0.93;;;;;;;25.68;41.22;101714.75;5012674;28;20117;-85
2023/06/26 11:13:20;;;;;;;2.08;1.10;;;;;;;25.65;41.92;101710.50;5013712;28;20036;-85
2023/06/26 11:15:46;;;;;;;;;;;;;;;25.67;44.27;101703.25;5014690;28;20022;-92
2023/06/26 11:18:13;;;;;;;1.00;0.90;;;;;;;25.75;43.06;101703.63;5013718;28;19913;-88
2023/06/26 11:23:24;;;;;;;1.60;1.00;;;;;;;25.99;42.43;101694.09;5032159;28;20087;-88
2023/06/26 11:25:56;;;;;;;2.03;1.45;;;;;;;25.76;38.97;101699.13;5029010;28;20026;-89
2023/06/26 11:28:37;;;;;;;1.25;1.10;;;;;;;25.47;38.75;101701.06;5033464;28;20073;-88
2023/06/26 11:31:25;;;;;;;2.15;1.50;;;;;;;25.42;40.38;101722.59;5033260;28;20385;-88
2023/06/26 11:36:25;;;;;;;1.10;1.00;;;;;;;25.61;43.56;101711.63;5059088;22;20505;-91
2023/06/26 11:39:14;;;;;;;0.93;0.90;;;;;;;25.67;42.24;101708.56;5053025;28;20055;-90
2023/06/26 11:41:48;;;;;;;1.00;0.90;;;;;;;25.65;38.87;101723.78;5053943;28;20025;-90
2023/06/26 11:44:23;;;;;;;1.35;1.23;;;;;;;25.73;41.18;101745.38;5053493;28;20552;-92